Time;durP1;ratioP1;P1;durP2;ratioP2;P2;SDS_P1;SDS_P2;PMS_P1;PMS_P2;Temp;Humidity;BMP_temperature;BMP_pressure;BME280_temperature;BME280_humidity;BME280_pressure;Samples;Min_cycle;Max_cycle;Signal;HPM_P1;HPM_P2
2022/04/26 03:44:05;;;;;;;48.50;30.70;;;;;;;6.94;83.53;98303.46;432376;1273;99276;-43
2022/04/26 03:54:12;;;;;;;53.20;30.00;;;;;;;6.97;83.54;98311.13;432359;1273;112410;-44
2022/04/26 04:04:19;;;;;;;50.40;32.50;;;;;;;6.98;83.54;98316.00;432305;1271;108846;-44
2022/04/26 04:14:27;;;;;;;41.50;26.80;;;;;;;7.00;83.68;98327.44;432170;1273;99325;-40
2022/04/26 04:24:33;;;;;;;41.50;25.70;;;;;;;6.99;83.70;98339.49;432404;1273;108523;-41
2022/04/26 04:44:47;;;;;;;39.20;23.90;;;;;;;7.03;83.78;98357.13;432403;1273;112644;-43
2022/04/26 04:54:54;;;;;;;42.40;21.30;;;;;;;7.06;83.89;98357.97;432028;1273;108919;-40
2022/04/26 05:05:01;;;;;;;35.50;22.00;;;;;;;7.12;83.85;98365.30;432477;1272;99292;-40
2022/04/26 05:15:10;;;;;;;35.00;23.60;;;;;;;7.09;84.02;98381.23;432351;1272;109221;-41
2022/04/26 05:25:17;;;;;;;31.00;20.50;;;;;;;7.11;84.08;98386.41;432037;1273;99284;-42
2022/04/26 05:35:24;;;;;;;29.10;18.60;;;;;;;7.25;84.19;98394.18;432323;1273;112409;-42
2022/04/26 05:45:32;;;;;;;26.90;18.30;;;;;;;7.33;84.06;98402.58;432023;1273;108976;-43
2022/04/26 06:05:46;;;;;;;39.50;23.40;;;;;;;7.44;83.99;98419.98;432330;1273;108870;-43
2022/04/26 06:15:53;;;;;;;35.50;24.90;;;;;;;7.47;84.02;98428.42;428495;1273;5376943;-41
2022/04/26 06:25:59;;;;;;;44.20;27.30;;;;;;;7.39;83.88;98438.30;432451;1272;112579;-45
2022/04/26 06:46:13;;;;;;;31.00;20.30;;;;;;;7.57;83.77;98440.92;432037;1273;98839;-45
2022/04/26 06:56:20;;;;;;;34.60;22.20;;;;;;;7.72;83.70;98442.80;432423;1273;107884;-46
2022/04/26 07:06:32;;;;;;;35.10;20.80;;;;;;;7.76;83.51;98449.55;432114;1273;99266;-43
2022/04/26 07:26:47;;;;;;;43.10;26.10;;;;;;;7.99;83.56;98472.04;432462;1273;108681;-41
2022/04/26 07:36:59;;;;;;;57.20;31.90;;;;;;;7.85;83.42;98479.02;432181;1273;98167;-43
2022/04/26 07:47:08;;;;;;;37.80;22.30;;;;;;;8.07;83.36;98492.59;432135;1273;108828;-44
2022/04/26 07:57:15;;;;;;;35.30;20.80;;;;;;;8.15;83.32;98496.60;432486;1273;99261;-41
2022/04/26 08:07:22;;;;;;;33.60;19.10;;;;;;;8.27;83.09;98503.71;432141;1273;112405;-43
2022/04/26 08:17:29;;;;;;;28.20;18.80;;;;;;;8.61;82.85;98509.95;432555;1273;107561;-43
2022/04/26 08:27:35;;;;;;;31.00;19.00;;;;;;;8.78;82.76;98519.98;432205;1273;99290;-41
2022/04/26 08:58:18;;;;;;;33.90;21.50;;;;;;;8.96;82.27;98535.86;432355;1273;112869;-42
2022/04/26 09:08:25;;;;;;;37.90;24.20;;;;;;;9.07;82.07;98545.16;432361;1273;108850;-43
2022/04/26 09:18:33;;;;;;;39.50;23.20;;;;;;;9.20;81.83;98550.70;432421;1273;99305;-44
2022/04/26 09:28:44;;;;;;;38.90;25.20;;;;;;;9.02;81.54;98558.89;432485;1273;109096;-43
2022/04/26 09:48:58;;;;;;;36.00;21.90;;;;;;;8.42;81.53;98574.73;432172;1273;111470;-42
2022/04/26 09:59:06;;;;;;;34.40;20.80;;;;;;;8.42;81.60;98578.05;432193;1273;108900;-44
2022/04/26 10:09:13;;;;;;;33.00;20.70;;;;;;;8.68;81.73;98576.41;432454;1273;99304;-45
2022/04/26 10:19:36;;;;;;;29.10;17.90;;;;;;;9.07;81.60;98567.59;432426;1273;108877;-42
2022/04/26 10:29:45;;;;;;;36.40;22.70;;;;;;;9.35;81.57;98577.73;432367;1272;99438;-44
2022/04/26 10:39:59;;;;;;;32.80;19.80;;;;;;;9.54;81.21;98578.61;432240;1274;112455;-42
2022/04/26 10:50:12;;;;;;;23.10;14.90;;;;;;;9.54;80.74;98585.85;432231;1273;108816;-46
2022/04/26 11:00:16;;;;;;;26.00;15.40;;;;;;;9.63;80.31;98580.86;432265;1274;99314;-44
2022/04/26 11:10:25;;;;;;;26.10;16.30;;;;;;;9.72;80.29;98582.98;432160;1275;108989;-41
2022/04/26 11:20:36;;;;;;;30.10;18.90;;;;;;;9.84;79.96;98589.15;432409;1273;99153;-43
2022/04/26 11:30:45;;;;;;;29.20;17.00;;;;;;;9.78;79.60;98589.64;432294;1274;112636;-45
2022/04/26 11:40:54;;;;;;;24.60;15.70;;;;;;;9.92;79.30;98595.06;432270;1273;108585;-45
2022/04/26 11:51:03;;;;;;;24.30;16.20;;;;;;;10.10;79.12;98597.21;432385;1273;99330;-45
2022/04/26 12:01:15;;;;;;;24.40;17.40;;;;;;;10.20;78.87;98598.53;432222;1273;108680;-41
2022/04/26 12:11:21;;;;;;;23.00;16.80;;;;;;;10.08;78.43;98598.95;432228;1273;99395;-40
2022/04/26 12:21:28;;;;;;;21.60;15.40;;;;;;;9.94;78.00;98596.28;432414;1273;111965;-43
2022/04/26 12:31:44;;;;;;;20.20;14.70;;;;;;;10.04;77.87;98600.44;432220;1273;108709;-44
2022/04/26 12:41:52;;;;;;;21.40;15.00;;;;;;;10.11;77.78;98603.52;432119;1274;99269;-42
2022/04/26 12:52:00;;;;;;;21.70;15.30;;;;;;;10.12;77.40;98601.00;432401;1273;108820;-45
2022/04/26 13:02:08;;;;;;;21.00;14.70;;;;;;;10.01;77.08;98599.26;432470;1274;99263;-46
2022/04/26 13:12:16;;;;;;;18.90;13.90;;;;;;;10.15;76.95;98594.27;432314;1273;112407;-40
2022/04/26 13:22:23;;;;;;;17.50;12.60;;;;;;;10.42;76.27;98591.87;432429;1274;108667;-43
2022/04/26 13:32:31;;;;;;;15.50;11.70;;;;;;;10.67;76.09;98588.58;432421;1273;99229;-41
2022/04/26 13:42:39;;;;;;;14.60;11.60;;;;;;;10.77;75.76;98593.88;432146;1273;108701;-44
2022/04/26 13:52:46;;;;;;;16.00;11.30;;;;;;;10.92;75.39;98593.31;432249;1274;98856;-46
2022/04/26 14:02:53;;;;;;;13.60;10.40;;;;;;;10.85;74.80;98594.83;432406;1274;113072;-44
2022/04/26 14:13:01;;;;;;;17.30;11.50;;;;;;;10.80;74.77;98598.38;432586;1273;108950;-41
2022/04/26 14:23:08;;;;;;;15.80;10.30;;;;;;;10.64;74.07;98603.63;432170;1274;99271;-44
2022/04/26 14:33:15;;;;;;;16.80;11.30;;;;;;;10.39;73.54;98606.13;432225;1274;108895;-42
2022/04/26 14:43:23;;;;;;;21.10;13.50;;;;;;;10.22;73.72;98609.08;432125;1274;99356;-42
2022/04/26 14:53:30;;;;;;;18.70;12.10;;;;;;;10.17;73.80;98606.00;432290;1274;111673;-42
2022/04/26 15:34:22;;;;;;;17.90;11.60;;;;;;;9.95;73.18;98613.38;432379;1273;98963;-40
2022/04/26 15:44:30;;;;;;;15.90;10.90;;;;;;;9.96;72.72;98616.13;432235;1273;112693;-43
2022/04/26 15:54:37;;;;;;;15.60;10.80;;;;;;;9.93;72.24;98613.42;432130;1273;108678;-44
2022/04/26 16:04:44;;;;;;;14.10;10.40;;;;;;;10.04;72.24;98605.88;432308;1273;99366;-41
2022/04/26 16:25:15;;;;;;;22.10;14.90;;;;;;;9.99;71.75;98610.03;432347;1273;98947;-43
2022/04/26 16:35:22;;;;;;;27.60;20.00;;;;;;;9.98;71.51;98611.34;432119;1273;112399;-41
2022/04/26 16:45:30;;;;;;;31.90;18.20;;;;;;;9.84;71.43;98612.98;432067;1273;109082;-45
2022/04/26 16:55:37;;;;;;;28.00;18.80;;;;;;;9.73;71.65;98623.67;432066;1273;99315;-42
2022/04/26 17:15:51;;;;;;;39.90;24.00;;;;;;;9.44;72.18;98638.22;432211;1273;99297;-45
2022/04/26 17:25:59;;;;;;;31.70;17.70;;;;;;;9.37;72.20;98643.45;432332;1273;112403;-44
2022/04/26 17:36:07;;;;;;;30.70;19.10;;;;;;;9.32;72.45;98658.99;432455;1273;108546;-43
2022/04/26 17:46:14;;;;;;;38.90;22.70;;;;;;;9.31;72.73;98670.16;431940;1273;99292;-45
2022/04/26 17:56:35;;;;;;;49.60;29.00;;;;;;;9.15;72.87;98674.67;432513;1273;108985;-44
2022/04/26 18:06:42;;;;;;;65.60;37.20;;;;;;;8.86;72.84;98690.02;431983;1273;99165;-43
2022/04/26 18:16:49;;;;;;;57.90;31.60;;;;;;;8.51;73.10;98704.05;432022;1273;559432;-46
2022/04/26 18:26:57;;;;;;;44.10;25.80;;;;;;;8.21;73.38;98718.70;431932;1274;107773;-41
2022/04/26 18:37:04;;;;;;;53.90;31.20;;;;;;;8.11;73.66;98730.39;432342;1273;99298;-41
2022/04/26 18:47:12;;;;;;;72.20;41.60;;;;;;;8.11;73.91;98744.86;432413;1272;107822;-44
2022/04/26 18:57:19;;;;;;;95.20;52.30;;;;;;;8.04;74.15;98747.20;431985;1274;99289;-42
2022/04/26 19:07:26;;;;;;;108.70;59.90;;;;;;;7.93;74.36;98749.66;432395;1272;112399;-43
2022/04/26 19:17:33;;;;;;;134.90;66.40;;;;;;;7.84;74.56;98756.60;432226;1273;109231;-44
2022/04/26 19:27:41;;;;;;;102.40;54.40;;;;;;;7.77;74.68;98762.36;432335;1273;98051;-45
2022/04/26 19:37:48;;;;;;;103.80;54.60;;;;;;;7.82;74.95;98769.86;432344;1273;108801;-41
2022/04/26 19:47:55;;;;;;;103.10;54.90;;;;;;;7.88;75.16;98772.30;432493;1272;99260;-43
2022/04/26 19:58:01;;;;;;;127.00;67.50;;;;;;;7.79;75.06;98772.41;431941;1273;112057;-44
2022/04/26 20:08:09;;;;;;;148.60;78.00;;;;;;;7.40;75.04;98772.88;431876;1273;109050;-44
2022/04/26 20:18:16;;;;;;;147.70;78.60;;;;;;;6.96;75.24;98773.45;432357;1273;98067;-41
2022/04/26 20:38:48;;;;;;;104.50;61.20;;;;;;;6.29;75.55;98777.20;431855;1272;99174;-41
2022/04/26 20:48:55;;;;;;;115.20;64.10;;;;;;;6.11;75.61;98776.39;431771;1273;112408;-43
2022/04/26 20:59:01;;;;;;;118.90;65.80;;;;;;;5.84;75.75;98778.16;431882;1273;106584;-45
2022/04/26 21:09:09;;;;;;;164.90;87.50;;;;;;;5.62;75.97;98785.52;431857;1273;101577;-44
2022/04/26 21:19:16;;;;;;;168.60;91.50;;;;;;;5.23;75.97;98792.95;431911;1273;107897;-41
2022/04/26 21:29:22;;;;;;;139.40;75.80;;;;;;;4.90;76.31;98802.33;431958;1273;99156;-44
2022/04/26 21:39:29;;;;;;;135.90;73.10;;;;;;;4.74;76.55;98810.63;432544;1272;112526;-47
2022/04/26 22:00:01;;;;;;;133.50;68.10;;;;;;;4.70;76.76;98824.04;432388;1273;99328;-41
2022/04/26 22:10:10;;;;;;;134.80;68.30;;;;;;;4.61;76.91;98825.80;432460;1273;108809;-44
2022/04/26 22:20:18;;;;;;;162.20;81.30;;;;;;;4.52;77.07;98835.06;432537;1273;98721;-42
2022/04/26 22:30:25;;;;;;;164.20;81.30;;;;;;;4.36;77.18;98836.05;432364;1273;112490;-43
2022/04/26 22:40:32;;;;;;;143.10;76.20;;;;;;;4.13;77.25;98838.11;432479;1273;108874;-45
2022/04/26 22:50:40;;;;;;;107.60;56.70;;;;;;;3.90;77.38;98843.14;432442;1273;99184;-43
2022/04/26 23:00:47;;;;;;;101.20;52.10;;;;;;;3.82;77.40;98842.03;432568;1273;108835;-42
2022/04/26 23:10:54;;;;;;;84.10;44.80;;;;;;;3.72;77.64;98846.28;432622;1273;98864;-43
2022/04/26 23:21:02;;;;;;;80.10;38.10;;;;;;;3.68;77.76;98857.25;432517;1273;111645;-43
2022/04/26 23:31:09;;;;;;;71.60;35.50;;;;;;;3.67;78.05;98855.42;432437;1273;108809;-40
2022/04/26 23:41:16;;;;;;;63.60;34.00;;;;;;;3.69;78.19;98856.26;432631;1273;99261;-44
